Time;durP1;ratioP1;P1;durP2;ratioP2;P2;SDS_P1;SDS_P2;PMS_P1;PMS_P2;Temp;Humidity;BMP_temperature;BMP_pressure;BME280_temperature;BME280_humidity;BME280_pressure;Samples;Min_cycle;Max_cycle;Signal;HPM_P1;HPM_P2
2023/07/24 00:00:13;;;;;;;19.10;5.57;;;;;;;;;;5167806;27;20057;-72
2023/07/24 00:02:59;;;;;;;19.67;6.05;;;;;;;;;;5155902;27;20106;-73
2023/07/24 00:05:27;;;;;;;22.50;5.72;;;;;;;;;;5140901;27;20489;-72
2023/07/24 00:07:53;;;;;;;16.10;4.95;;;;;;;;;;5160214;27;20425;-73
2023/07/24 00:10:20;;;;;;;14.43;4.63;;;;;;;;;;5158823;27;20050;-73
2023/07/24 00:12:46;;;;;;;18.00;5.43;;;;;;;;;;5160109;27;20061;-74
2023/07/24 00:15:12;;;;;;;21.52;5.82;;;;;;;;;;5160111;27;20076;-74
2023/07/24 00:17:38;;;;;;;18.38;4.78;;;;;;;;;;5152878;27;20065;-74
2023/07/24 00:20:06;;;;;;;17.10;4.78;;;;;;;;;;5160684;27;20049;-74
2023/07/24 00:22:32;;;;;;;15.02;4.97;;;;;;;;;;5167075;27;20038;-72
2023/07/24 00:24:58;;;;;;;18.25;5.40;;;;;;;;;;5162351;27;20080;-73
2023/07/24 00:27:24;;;;;;;21.33;5.88;;;;;;;;;;5165394;27;20042;-72
2023/07/24 00:29:50;;;;;;;21.52;5.93;;;;;;;;;;5150464;27;20419;-73
2023/07/24 00:32:16;;;;;;;18.08;5.47;;;;;;;;;;5147397;27;20798;-72
2023/07/24 00:34:42;;;;;;;24.08;6.45;;;;;;;;;;5164334;27;20042;-72
2023/07/24 00:37:08;;;;;;;23.48;5.78;;;;;;;;;;5156977;27;20034;-73
2023/07/24 00:39:33;;;;;;;12.85;4.45;;;;;;;;;;5158032;27;20038;-72
2023/07/24 00:41:59;;;;;;;17.77;5.68;;;;;;;;;;5167779;27;20061;-71
2023/07/24 00:44:25;;;;;;;22.58;5.60;;;;;;;;;;5163109;27;20490;-71
2023/07/24 00:46:53;;;;;;;21.08;5.57;;;;;;;;;;5168193;27;20129;-72
2023/07/24 00:49:19;;;;;;;24.75;6.38;;;;;;;;;;5142834;27;20451;-73
2023/07/24 00:51:46;;;;;;;15.63;5.00;;;;;;;;;;5166020;27;20377;-73
2023/07/24 00:54:14;;;;;;;17.73;5.55;;;;;;;;;;5170757;27;20040;-71
2023/07/24 00:56:41;;;;;;;21.13;5.80;;;;;;;;;;5158085;27;20065;-72
2023/07/24 00:59:07;;;;;;;16.25;5.60;;;;;;;;;;5159177;27;20048;-71
2023/07/24 01:01:33;;;;;;;18.75;5.72;;;;;;;;;;5145379;27;20072;-72
2023/07/24 01:04:01;;;;;;;14.65;4.78;;;;;;;;;;5139699;27;20046;-72
2023/07/24 01:06:29;;;;;;;22.85;6.47;;;;;;;;;;5161221;27;20485;-73
2023/07/24 01:08:54;;;;;;;20.38;6.40;;;;;;;;;;5149679;27;20505;-70
2023/07/24 01:11:28;;;;;;;20.10;5.20;;;;;;;;;;5169228;27;20062;-73
2023/07/24 01:14:19;;;;;;;20.70;5.20;;;;;;;;;;5166028;27;20046;-72
2023/07/24 01:16:48;;;;;;;20.92;6.22;;;;;;;;;;5170016;27;20054;-72
2023/07/24 01:19:54;;;;;;;15.57;5.55;;;;;;;;;;5150647;27;20157;-71
2023/07/24 01:22:29;;;;;;;16.05;5.45;;;;;;;;;;5164975;27;20055;-71
2023/07/24 01:25:14;;;;;;;23.63;6.38;;;;;;;;;;5162536;27;20050;-71
2023/07/24 01:27:43;;;;;;;22.35;6.45;;;;;;;;;;5166167;27;20053;-71
2023/07/24 01:30:10;;;;;;;14.38;5.28;;;;;;;;;;5167562;27;20095;-72
2023/07/24 01:32:37;;;;;;;20.98;5.85;;;;;;;;;;5164583;27;20072;-71
2023/07/24 01:35:04;;;;;;;17.13;5.80;;;;;;;;;;5162590;27;20042;-73
2023/07/24 01:37:31;;;;;;;23.70;5.85;;;;;;;;;;5166043;27;20165;-72
2023/07/24 01:39:58;;;;;;;20.38;6.68;;;;;;;;;;5143306;27;20066;-71
2023/07/24 01:42:25;;;;;;;29.67;6.57;;;;;;;;;;5162079;27;20046;-72
2023/07/24 01:44:55;;;;;;;15.90;5.10;;;;;;;;;;5160379;27;20050;-72
2023/07/24 01:47:21;;;;;;;20.00;6.50;;;;;;;;;;5157471;27;20053;-71
2023/07/24 01:49:47;;;;;;;20.13;6.20;;;;;;;;;;5162415;27;20050;-71
2023/07/24 01:52:14;;;;;;;21.92;6.30;;;;;;;;;;5159784;27;20473;-71
2023/07/24 01:54:40;;;;;;;21.17;6.35;;;;;;;;;;5165472;27;20054;-72
2023/07/24 01:57:06;;;;;;;16.77;5.55;;;;;;;;;;5157097;27;20054;-71
2023/07/24 01:59:32;;;;;;;19.83;6.40;;;;;;;;;;5140040;27;20106;-71
2023/07/24 02:01:58;;;;;;;17.70;5.72;;;;;;;;;;5138189;27;20047;-71
2023/07/24 02:04:25;;;;;;;15.27;5.72;;;;;;;;;;5143652;27;20146;-70
2023/07/24 02:06:51;;;;;;;18.15;6.43;;;;;;;;;;5139082;27;20098;-71
2023/07/24 02:09:20;;;;;;;21.65;6.25;;;;;;;;;;5138517;27;20121;-71
2023/07/24 02:11:46;;;;;;;18.42;6.45;;;;;;;;;;5142924;27;20202;-69
2023/07/24 02:14:14;;;;;;;26.17;6.93;;;;;;;;;;5144052;27;20438;-72
2023/07/24 02:16:42;;;;;;;21.98;6.70;;;;;;;;;;5146112;27;20069;-72
2023/07/24 02:19:08;;;;;;;24.23;7.03;;;;;;;;;;5142562;27;20482;-68
2023/07/24 02:21:34;;;;;;;22.95;7.30;;;;;;;;;;5139632;27;20047;-70
2023/07/24 02:23:59;;;;;;;15.68;6.22;;;;;;;;;;5135260;27;20046;-71
2023/07/24 02:26:25;;;;;;;21.15;6.32;;;;;;;;;;5135463;27;20218;-69
2023/07/24 02:28:52;;;;;;;22.95;7.28;;;;;;;;;;5134358;27;20051;-71
2023/07/24 02:31:18;;;;;;;22.67;7.03;;;;;;;;;;5146344;27;20103;-70
2023/07/24 02:33:44;;;;;;;21.85;7.38;;;;;;;;;;5146590;27;20396;-71
2023/07/24 02:36:11;;;;;;;23.58;7.20;;;;;;;;;;5139215;27;20066;-71
2023/07/24 02:38:37;;;;;;;26.52;7.70;;;;;;;;;;5133896;27;20043;-71
2023/07/24 02:41:06;;;;;;;19.52;7.28;;;;;;;;;;5135705;27;20467;-71
2023/07/24 02:43:33;;;;;;;19.02;7.15;;;;;;;;;;5133653;27;20046;-71
2023/07/24 02:46:02;;;;;;;18.05;7.10;;;;;;;;;;5140869;27;20051;-71
2023/07/24 02:48:29;;;;;;;23.33;6.97;;;;;;;;;;5142160;27;20067;-71
2023/07/24 02:50:55;;;;;;;21.48;7.50;;;;;;;;;;5139808;27;20386;-71
2023/07/24 02:53:21;;;;;;;21.23;7.65;;;;;;;;;;5140406;27;20049;-71
2023/07/24 02:55:47;;;;;;;23.30;8.23;;;;;;;;;;5139286;27;20089;-69
2023/07/24 02:58:13;;;;;;;22.23;8.30;;;;;;;;;;5146106;27;20086;-70
2023/07/24 03:00:40;;;;;;;28.15;8.75;;;;;;;;;;5163527;27;20494;-71
2023/07/24 03:03:06;;;;;;;20.05;7.35;;;;;;;;;;5151666;27;20051;-71
2023/07/24 03:05:34;;;;;;;24.25;7.57;;;;;;;;;;5168913;27;20053;-71
2023/07/24 03:08:01;;;;;;;24.83;8.50;;;;;;;;;;5158178;27;20070;-72
2023/07/24 03:10:27;;;;;;;26.77;8.38;;;;;;;;;;5169582;27;20038;-70
2023/07/24 03:12:53;;;;;;;14.13;5.55;;;;;;;;;;5160963;27;20529;-71
2023/07/24 03:15:19;;;;;;;18.52;6.22;;;;;;;;;;5158032;27;20069;-70
2023/07/24 03:17:45;;;;;;;19.38;7.93;;;;;;;;;;5151266;27;20118;-70
2023/07/24 03:20:16;;;;;;;15.68;7.07;;;;;;;;;;5166783;27;20046;-71
2023/07/24 03:22:42;;;;;;;23.08;7.95;;;;;;;;;;5164712;27;20049;-70
2023/07/24 03:25:09;;;;;;;23.17;8.23;;;;;;;;;;5164555;27;20038;-70
2023/07/24 03:27:34;;;;;;;28.10;8.30;;;;;;;;;;5166606;27;20055;-72
2023/07/24 03:30:01;;;;;;;27.85;8.30;;;;;;;;;;5167356;27;20046;-71
2023/07/24 03:32:27;;;;;;;28.30;8.68;;;;;;;;;;5165225;27;20413;-70
2023/07/24 03:34:53;;;;;;;21.13;7.88;;;;;;;;;;5161320;27;20102;-69
2023/07/24 03:37:19;;;;;;;26.30;7.90;;;;;;;;;;5163930;27;20165;-71
2023/07/24 03:39:45;;;;;;;32.78;8.95;;;;;;;;;;5159410;27;20066;-70
2023/07/24 03:42:14;;;;;;;21.55;7.88;;;;;;;;;;5158626;27;20160;-70
2023/07/24 03:44:43;;;;;;;20.60;7.88;;;;;;;;;;5154308;27;20043;-70
2023/07/24 03:47:09;;;;;;;20.73;8.02;;;;;;;;;;5161491;27;20053;-70
2023/07/24 03:49:35;;;;;;;25.23;8.27;;;;;;;;;;5165770;27;20113;-72
2023/07/24 03:52:00;;;;;;;28.63;9.27;;;;;;;;;;5158869;27;20146;-70
2023/07/24 03:54:28;;;;;;;21.88;8.05;;;;;;;;;;5159256;27;20106;-70
2023/07/24 03:56:54;;;;;;;24.90;8.02;;;;;;;;;;5155192;27;20062;-70
2023/07/24 03:59:20;;;;;;;22.20;8.50;;;;;;;;;;5163874;27;20054;-70
2023/07/24 04:01:45;;;;;;;22.00;7.80;;;;;;;;;;5161038;27;20106;-70
2023/07/24 04:04:18;;;;;;;24.23;7.53;;;;;;;;;;5142763;27;20052;-70
2023/07/24 04:06:45;;;;;;;21.48;8.43;;;;;;;;;;5165082;27;23048;-68
2023/07/24 04:09:14;;;;;;;25.00;8.23;;;;;;;;;;5157493;27;20644;-70
2023/07/24 04:11:44;;;;;;;18.13;7.22;;;;;;;;;;5160430;27;20056;-70
2023/07/24 04:14:10;;;;;;;25.50;7.85;;;;;;;;;;5153819;27;20100;-69
2023/07/24 04:16:36;;;;;;;21.40;7.63;;;;;;;;;;5167677;27;20176;-70
2023/07/24 04:19:02;;;;;;;17.55;6.95;;;;;;;;;;5144635;27;20049;-71
2023/07/24 04:21:28;;;;;;;16.08;5.88;;;;;;;;;;5160637;27;20050;-71
2023/07/24 04:23:54;;;;;;;22.23;6.90;;;;;;;;;;5157878;27;20489;-69
2023/07/24 04:26:20;;;;;;;25.67;7.07;;;;;;;;;;5158886;27;20049;-70
2023/07/24 04:28:46;;;;;;;25.95;7.25;;;;;;;;;;5163996;27;20106;-73
2023/07/24 04:31:12;;;;;;;28.15;7.53;;;;;;;;;;5157917;27;20055;-70
2023/07/24 04:33:39;;;;;;;21.42;6.57;;;;;;;;;;5150186;27;20514;-69
2023/07/24 04:36:04;;;;;;;20.00;6.70;;;;;;;;;;5158183;27;20054;-68
2023/07/24 04:38:30;;;;;;;22.25;7.18;;;;;;;;;;5162916;27;20442;-69
2023/07/24 04:40:56;;;;;;;17.20;6.45;;;;;;;;;;5156413;27;20070;-70
2023/07/24 04:43:22;;;;;;;21.05;7.07;;;;;;;;;;5150251;27;20390;-71
2023/07/24 04:45:48;;;;;;;29.45;7.53;;;;;;;;;;5152086;27;20050;-69
2023/07/24 04:48:14;;;;;;;29.20;7.85;;;;;;;;;;5162021;27;20454;-70
2023/07/24 04:50:40;;;;;;;22.08;7.28;;;;;;;;;;5155840;27;20043;-71
2023/07/24 04:53:06;;;;;;;29.02;6.95;;;;;;;;;;5157639;27;20065;-70
2023/07/24 04:55:32;;;;;;;20.48;6.78;;;;;;;;;;5159338;27;20042;-70
2023/07/24 04:57:58;;;;;;;18.70;6.60;;;;;;;;;;5155076;27;20047;-69
2023/07/24 05:00:26;;;;;;;18.45;6.78;;;;;;;;;;5152175;27;20062;-70
2023/07/24 05:02:52;;;;;;;25.42;6.97;;;;;;;;;;5156006;27;20136;-68
2023/07/24 05:05:18;;;;;;;21.92;7.38;;;;;;;;;;5163716;27;20038;-70
2023/07/24 05:07:45;;;;;;;18.40;6.47;;;;;;;;;;5161528;27;20046;-70
2023/07/24 05:10:11;;;;;;;18.00;6.03;;;;;;;;;;5160391;27;20046;-70
2023/07/24 05:12:42;;;;;;;19.65;6.72;;;;;;;;;;5161696;27;20051;-71
2023/07/24 05:15:08;;;;;;;15.77;6.50;;;;;;;;;;5158596;27;20042;-70
2023/07/24 05:17:34;;;;;;;20.33;5.22;;;;;;;;;;5161952;27;20057;-71
2023/07/24 05:20:00;;;;;;;23.98;6.22;;;;;;;;;;5170146;27;20046;-70
2023/07/24 05:22:26;;;;;;;23.20;6.47;;;;;;;;;;5159226;27;20062;-72
2023/07/24 05:24:52;;;;;;;20.60;7.38;;;;;;;;;;5156860;27;20038;-71
2023/07/24 05:27:18;;;;;;;21.70;6.93;;;;;;;;;;5161584;27;20042;-71
2023/07/24 05:29:44;;;;;;;23.05;7.07;;;;;;;;;;5154894;27;20053;-71
2023/07/24 05:32:10;;;;;;;20.52;6.95;;;;;;;;;;5155013;27;20390;-69
2023/07/24 05:34:36;;;;;;;24.08;7.53;;;;;;;;;;5164921;27;20045;-70
2023/07/24 05:37:03;;;;;;;22.77;7.07;;;;;;;;;;5163943;27;20065;-71
2023/07/24 05:39:29;;;;;;;28.67;7.45;;;;;;;;;;5159326;27;20102;-70
2023/07/24 05:41:55;;;;;;;21.45;6.75;;;;;;;;;;5164288;27;20042;-71
2023/07/24 05:44:21;;;;;;;25.08;7.75;;;;;;;;;;5160267;27;20214;-70
2023/07/24 05:46:48;;;;;;;31.58;8.20;;;;;;;;;;5159608;27;20570;-70
2023/07/24 05:49:13;;;;;;;19.77;7.95;;;;;;;;;;5147274;27;20038;-71
2023/07/24 05:51:42;;;;;;;24.25;8.05;;;;;;;;;;5160592;27;20106;-70
2023/07/24 05:54:09;;;;;;;32.38;8.63;;;;;;;;;;5162663;27;20054;-72
2023/07/24 05:56:35;;;;;;;26.75;8.77;;;;;;;;;;5139019;27;20042;-70
2023/07/24 05:59:02;;;;;;;27.38;8.00;;;;;;;;;;5165400;27;20053;-71
2023/07/24 06:01:28;;;;;;;29.92;8.00;;;;;;;;;;5159962;27;20122;-72
2023/07/24 06:03:54;;;;;;;21.58;7.47;;;;;;;;;;5161979;27;20046;-72
2023/07/24 06:06:20;;;;;;;20.83;6.18;;;;;;;;;;5154572;27;20051;-72
2023/07/24 06:08:47;;;;;;;24.67;7.03;;;;;;;;;;5168553;27;20046;-71
2023/07/24 06:11:13;;;;;;;24.95;7.90;;;;;;;;;;5142472;27;20527;-72
2023/07/24 06:13:40;;;;;;;25.73;7.28;;;;;;;;;;5169224;27;20046;-71
2023/07/24 06:16:07;;;;;;;28.40;7.50;;;;;;;;;;5166062;27;20110;-71
2023/07/24 06:18:34;;;;;;;27.60;7.70;;;;;;;;;;5163696;27;20042;-71
2023/07/24 06:21:00;;;;;;;34.20;7.90;;;;;;;;;;5129188;27;20055;-70
2023/07/24 06:23:26;;;;;;;28.38;7.32;;;;;;;;;;5144696;27;20057;-71
2023/07/24 06:25:52;;;;;;;23.05;7.05;;;;;;;;;;5163185;27;20055;-71
2023/07/24 06:28:19;;;;;;;24.70;7.53;;;;;;;;;;5160860;27;20050;-72
2023/07/24 06:30:45;;;;;;;30.35;7.50;;;;;;;;;;5167641;27;20030;-72
2023/07/24 06:33:11;;;;;;;23.95;7.22;;;;;;;;;;5161039;27;20053;-71
2023/07/24 06:35:37;;;;;;;24.67;6.85;;;;;;;;;;5162647;27;20417;-72
2023/07/24 06:38:03;;;;;;;25.02;6.95;;;;;;;;;;5127863;27;20058;-71
2023/07/24 06:40:29;;;;;;;25.80;6.53;;;;;;;;;;5166483;27;20050;-70
2023/07/24 06:42:56;;;;;;;28.77;7.28;;;;;;;;;;5163577;27;20048;-72
2023/07/24 06:45:22;;;;;;;27.20;6.60;;;;;;;;;;5161796;27;20046;-71
2023/07/24 06:47:48;;;;;;;24.23;6.50;;;;;;;;;;5153547;27;20043;-71
2023/07/24 06:50:16;;;;;;;22.48;7.30;;;;;;;;;;5161808;27;20049;-70
2023/07/24 06:52:42;;;;;;;25.88;6.93;;;;;;;;;;5164918;27;20042;-72
2023/07/24 06:55:08;;;;;;;28.75;7.22;;;;;;;;;;5156885;27;20054;-71
2023/07/24 06:57:34;;;;;;;33.50;7.75;;;;;;;;;;5157186;27;20049;-71
2023/07/24 07:00:00;;;;;;;34.22;6.82;;;;;;;;;;5158648;27;20054;-71
2023/07/24 07:02:28;;;;;;;17.17;6.25;;;;;;;;;;5167285;27;20416;-70
2023/07/24 07:04:56;;;;;;;22.52;6.43;;;;;;;;;;5168714;27;20125;-72
2023/07/24 07:07:22;;;;;;;21.48;6.05;;;;;;;;;;5161871;27;20134;-70
2023/07/24 07:09:49;;;;;;;19.65;6.80;;;;;;;;;;5155292;27;20564;-72
2023/07/24 07:12:15;;;;;;;31.77;6.80;;;;;;;;;;5155453;27;20053;-72
2023/07/24 07:14:41;;;;;;;24.02;7.10;;;;;;;;;;5157106;27;20425;-75
2023/07/24 07:17:08;;;;;;;25.77;7.28;;;;;;;;;;5153626;27;20054;-71
2023/07/24 07:19:36;;;;;;;28.35;7.10;;;;;;;;;;5150962;27;20085;-70
2023/07/24 07:22:03;;;;;;;28.77;6.53;;;;;;;;;;5151628;27;20050;-72
2023/07/24 07:24:30;;;;;;;21.40;5.97;;;;;;;;;;5152519;27;20421;-72
2023/07/24 07:27:36;;;;;;;24.00;6.70;;;;;;;;;;5146846;27;20046;-71
2023/07/24 07:31:18;;;;;;;20.70;6.28;;;;;;;;;;5153532;27;20444;-69
2023/07/24 07:34:58;;;;;;;27.33;6.85;;;;;;;;;;5164687;27;20035;-74
2023/07/24 07:38:39;;;;;;;27.70;7.78;;;;;;;;;;5152049;27;20042;-68
2023/07/24 07:41:39;;;;;;;26.55;7.97;;;;;;;;;;5153325;27;20050;-75
2023/07/24 07:44:05;;;;;;;30.67;7.72;;;;;;;;;;5155243;27;20034;-73
2023/07/24 07:46:31;;;;;;;26.48;7.57;;;;;;;;;;5157274;27;20158;-74
2023/07/24 07:49:38;;;;;;;30.08;6.93;;;;;;;;;;5162543;27;20159;-75
2023/07/24 07:53:17;;;;;;;21.33;7.22;;;;;;;;;;5157845;27;20449;-74
2023/07/24 07:56:58;;;;;;;20.45;6.60;;;;;;;;;;5158133;27;20050;-75
2023/07/24 08:00:41;;;;;;;23.00;6.78;;;;;;;;;;5156413;27;20092;-72
2023/07/24 08:04:22;;;;;;;22.95;7.07;;;;;;;;;;5157721;27;20499;-72
2023/07/24 08:08:02;;;;;;;22.08;6.65;;;;;;;;;;5160840;27;20046;-72
2023/07/24 08:11:46;;;;;;;21.35;7.30;;;;;;;;;;5157764;27;20332;-73
2023/07/24 08:15:27;;;;;;;16.02;6.65;;;;;;;;;;5159340;27;20057;-71
2023/07/24 08:19:07;;;;;;;19.52;6.43;;;;;;;;;;5169351;27;20477;-74
2023/07/24 08:22:48;;;;;;;24.70;6.70;;;;;;;;;;5168183;27;20101;-74
2023/07/24 08:26:34;;;;;;;18.20;6.05;;;;;;;;;;5167721;27;20404;-77
2023/07/24 08:29:37;;;;;;;21.30;6.60;;;;;;;;;;5172817;27;20101;-73
2023/07/24 08:32:04;;;;;;;26.23;6.88;;;;;;;;;;5162156;27;20115;-74
2023/07/24 08:34:30;;;;;;;22.02;7.07;;;;;;;;;;5162289;27;20047;-73
2023/07/24 08:36:56;;;;;;;27.17;7.13;;;;;;;;;;5167768;27;20055;-77
2023/07/24 08:39:22;;;;;;;19.52;6.70;;;;;;;;;;5160087;27;20050;-72
2023/07/24 08:41:50;;;;;;;20.40;6.55;;;;;;;;;;5153888;27;20050;-72
2023/07/24 08:44:17;;;;;;;17.25;7.32;;;;;;;;;;5164706;27;20044;-74
2023/07/24 08:46:45;;;;;;;19.20;6.72;;;;;;;;;;5143433;27;20054;-72
2023/07/24 08:49:13;;;;;;;24.42;7.22;;;;;;;;;;5166203;27;20051;-71
2023/07/24 08:51:41;;;;;;;19.95;6.65;;;;;;;;;;5146291;27;20125;-69
2023/07/24 08:54:08;;;;;;;23.63;6.50;;;;;;;;;;5145822;27;20046;-73
2023/07/24 08:56:37;;;;;;;24.23;7.38;;;;;;;;;;5157524;27;20042;-70
2023/07/24 08:59:04;;;;;;;22.67;7.63;;;;;;;;;;5161878;27;20066;-70
2023/07/24 09:01:31;;;;;;;16.88;6.97;;;;;;;;;;5157947;27;20065;-70
2023/07/24 09:03:57;;;;;;;27.77;7.30;;;;;;;;;;5163358;27;20058;-75
2023/07/24 09:06:27;;;;;;;17.63;6.72;;;;;;;;;;5162692;27;20049;-74
2023/07/24 09:08:55;;;;;;;20.50;7.72;;;;;;;;;;5164977;27;20895;-75
2023/07/24 09:11:21;;;;;;;25.95;7.60;;;;;;;;;;5146408;27;20594;-69
2023/07/24 09:13:47;;;;;;;23.88;6.75;;;;;;;;;;5157905;27;20046;-69
2023/07/24 09:16:26;;;;;;;14.90;7.10;;;;;;;;;;5141359;27;20106;-69
2023/07/24 09:18:53;;;;;;;19.13;7.55;;;;;;;;;;5152385;27;20050;-69
2023/07/24 09:21:30;;;;;;;20.30;7.20;;;;;;;;;;5163791;27;20576;-72
2023/07/24 09:23:57;;;;;;;15.93;7.05;;;;;;;;;;5165764;27;20054;-70
2023/07/24 09:26:23;;;;;;;15.60;7.15;;;;;;;;;;5162639;27;20055;-72
2023/07/24 09:28:53;;;;;;;21.63;6.93;;;;;;;;;;5159135;27;20046;-70
2023/07/24 09:32:00;;;;;;;17.60;7.32;;;;;;;;;;5161435;27;20050;-73
2023/07/24 09:35:40;;;;;;;15.30;6.07;;;;;;;;;;5159611;27;20103;-70
2023/07/24 09:39:22;;;;;;;21.73;6.45;;;;;;;;;;5165465;27;20620;-71
2023/07/24 09:42:30;;;;;;;17.88;6.85;;;;;;;;;;5153033;27;20121;-70
2023/07/24 09:44:56;;;;;;;14.18;6.53;;;;;;;;;;5158520;27;20043;-70
2023/07/24 09:47:23;;;;;;;19.48;7.43;;;;;;;;;;5156985;27;20061;-72
2023/07/24 09:49:52;;;;;;;13.60;6.60;;;;;;;;;;5158725;27;20049;-72
2023/07/24 09:52:57;;;;;;;11.77;5.95;;;;;;;;;;5158750;27;20053;-72
2023/07/24 09:56:39;;;;;;;11.65;6.90;;;;;;;;;;5157384;27;20046;-70
2023/07/24 10:00:20;;;;;;;13.77;5.95;;;;;;;;;;5155328;27;20058;-71
2023/07/24 10:04:01;;;;;;;17.08;6.70;;;;;;;;;;5153621;27;20051;-73
2023/07/24 10:07:44;;;;;;;14.85;6.63;;;;;;;;;;5156522;27;20045;-72
2023/07/24 10:11:25;;;;;;;14.90;6.55;;;;;;;;;;5157493;27;20106;-71
2023/07/24 10:15:06;;;;;;;17.85;6.85;;;;;;;;;;5154854;27;20034;-70
2023/07/24 10:18:49;;;;;;;10.05;6.05;;;;;;;;;;5155481;27;20054;-70
2023/07/24 10:22:29;;;;;;;16.95;6.57;;;;;;;;;;5166154;27;20688;-71
2023/07/24 10:26:12;;;;;;;18.00;6.78;;;;;;;;;;5164054;27;20049;-73
2023/07/24 10:29:56;;;;;;;12.02;6.30;;;;;;;;;;5163641;27;20132;-72
2023/07/24 10:32:24;;;;;;;15.45;7.57;;;;;;;;;;5157413;27;20497;-72
2023/07/24 10:35:10;;;;;;;16.23;6.57;;;;;;;;;;5157694;27;20089;-71
2023/07/24 10:37:37;;;;;;;10.75;6.53;;;;;;;;;;5160508;27;20039;-73
2023/07/24 10:40:04;;;;;;;19.73;7.13;;;;;;;;;;5156089;27;20296;-72
2023/07/24 10:42:33;;;;;;;17.10;7.15;;;;;;;;;;5163230;27;20069;-72
2023/07/24 10:45:45;;;;;;;16.30;6.97;;;;;;;;;;5163677;27;20042;-78
2023/07/24 10:49:27;;;;;;;18.38;7.00;;;;;;;;;;5159492;27;20042;-73
2023/07/24 10:52:52;;;;;;;23.48;7.10;;;;;;;;;;5157259;27;20039;-71
2023/07/24 10:55:18;;;;;;;16.00;7.55;;;;;;;;;;5160331;27;20069;-76
2023/07/24 10:57:44;;;;;;;17.05;6.53;;;;;;;;;;5177063;27;20031;-83
2023/07/24 11:00:11;;;;;;;12.80;7.25;;;;;;;;;;5179320;27;20068;-80
2023/07/24 11:02:37;;;;;;;15.82;7.28;;;;;;;;;;5168549;27;20046;-79
2023/07/24 11:05:05;;;;;;;18.27;7.15;;;;;;;;;;5169201;27;20114;-81
2023/07/24 11:07:33;;;;;;;22.73;7.40;;;;;;;;;;5170058;27;20501;-80
2023/07/24 11:10:00;;;;;;;22.10;7.38;;;;;;;;;;5168408;27;20133;-78
2023/07/24 11:12:30;;;;;;;20.60;6.75;;;;;;;;;;5185921;27;20026;-81
2023/07/24 11:14:58;;;;;;;23.10;7.80;;;;;;;;;;5173737;27;20050;-84
2023/07/24 11:17:42;;;;;;;25.10;7.40;;;;;;;;;;5172645;27;20047;-78
2023/07/24 11:20:12;;;;;;;16.05;7.50;;;;;;;;;;5187293;27;20056;-80
2023/07/24 11:22:41;;;;;;;15.98;7.65;;;;;;;;;;5173033;27;20034;-78
2023/07/24 11:25:10;;;;;;;22.08;7.30;;;;;;;;;;5180388;27;20039;-81
2023/07/24 11:27:41;;;;;;;19.70;6.68;;;;;;;;;;5189884;27;20060;-83
2023/07/24 11:30:08;;;;;;;19.88;7.57;;;;;;;;;;5183426;27;20532;-81
2023/07/24 11:32:34;;;;;;;23.17;7.63;;;;;;;;;;5174057;27;20046;-80
2023/07/24 11:35:02;;;;;;;18.17;7.55;;;;;;;;;;5166746;27;20119;-75
2023/07/24 11:37:29;;;;;;;15.50;6.70;;;;;;;;;;5173355;27;20058;-80
2023/07/24 11:40:04;;;;;;;16.83;7.82;;;;;;;;;;5148206;27;20038;-80
2023/07/24 11:42:30;;;;;;;16.17;7.50;;;;;;;;;;5171867;27;20131;-79
2023/07/24 11:45:37;;;;;;;23.27;7.20;;;;;;;;;;5182389;27;20336;-77
2023/07/24 11:49:18;;;;;;;19.75;7.13;;;;;;;;;;5166943;22;20091;-76
2023/07/24 11:52:18;;;;;;;21.90;7.65;;;;;;;;;;5065293;28;20051;-76
2023/07/24 11:55:00;;;;;;;17.23;7.13;;;;;;;;;;5063531;28;20353;-76
2023/07/24 11:57:28;;;;;;;19.92;6.78;;;;;;;;;;5067922;28;20044;-75
2023/07/24 11:59:59;;;;;;;23.35;7.25;;;;;;;;;;5067495;28;20450;-74
2023/07/24 12:02:28;;;;;;;26.38;7.35;;;;;;;;;;5050946;28;20060;-73
2023/07/24 12:04:59;;;;;;;22.45;7.22;;;;;;;;;;5062122;28;20123;-75
2023/07/24 12:07:34;;;;;;;22.50;7.13;;;;;;;;;;5063528;28;20091;-72
2023/07/24 12:10:01;;;;;;;24.90;7.22;;;;;;;;;;5059060;28;20059;-69
2023/07/24 12:12:44;;;;;;;23.00;7.07;;;;;;;;;;5062615;28;20044;-72
2023/07/24 12:15:11;;;;;;;21.88;7.60;;;;;;;;;;5058291;28;20036;-71
2023/07/24 12:17:41;;;;;;;26.85;7.47;;;;;;;;;;5062760;28;20052;-71
2023/07/24 12:20:10;;;;;;;20.95;7.15;;;;;;;;;;5068772;28;20048;-71
2023/07/24 12:22:39;;;;;;;21.65;7.30;;;;;;;;;;5065725;28;20056;-74
2023/07/24 12:25:06;;;;;;;21.92;6.78;;;;;;;;;;5069378;28;20049;-71
2023/07/24 12:27:33;;;;;;;20.60;6.93;;;;;;;;;;5071432;28;20056;-73
2023/07/24 12:30:00;;;;;;;19.17;6.25;;;;;;;;;;5060052;28;20044;-72
2023/07/24 12:32:28;;;;;;;19.33;6.93;;;;;;;;;;5066600;28;20192;-76
2023/07/24 12:34:55;;;;;;;22.25;7.47;;;;;;;;;;5062828;28;20084;-75
2023/07/24 12:37:20;;;;;;;25.15;7.18;;;;;;;;;;5068652;28;20121;-76
2023/07/24 12:39:49;;;;;;;19.40;7.15;;;;;;;;;;5060776;28;20054;-72
2023/07/24 12:42:16;;;;;;;29.02;6.32;;;;;;;;;;5068661;28;20066;-73
2023/07/24 12:44:43;;;;;;;22.00;6.95;;;;;;;;;;5063550;28;20055;-72
2023/07/24 12:47:12;;;;;;;17.95;6.53;;;;;;;;;;5063647;28;20455;-73
2023/07/24 12:49:39;;;;;;;19.40;6.85;;;;;;;;;;5068341;28;20048;-74
2023/07/24 12:52:07;;;;;;;14.23;6.60;;;;;;;;;;5068505;28;20064;-75
2023/07/24 12:54:34;;;;;;;16.00;6.90;;;;;;;;;;5062777;28;20040;-71
2023/07/24 12:57:02;;;;;;;13.18;6.40;;;;;;;;;;5069243;28;20044;-72
2023/07/24 12:59:28;;;;;;;14.45;6.35;;;;;;;;;;5065558;28;20454;-73
2023/07/24 13:01:54;;;;;;;15.32;6.65;;;;;;;;;;5066319;28;20109;-72
2023/07/24 13:04:20;;;;;;;11.82;6.45;;;;;;;;;;5068848;28;20052;-71
2023/07/24 13:06:46;;;;;;;20.50;6.95;;;;;;;;;;5063593;28;20432;-73
2023/07/24 13:09:13;;;;;;;17.30;6.78;;;;;;;;;;5062059;28;20064;-72
2023/07/24 13:11:39;;;;;;;11.95;7.07;;;;;;;;;;5069472;28;20048;-73
2023/07/24 13:14:05;;;;;;;14.45;6.40;;;;;;;;;;5057252;28;20219;-71
2023/07/24 13:16:32;;;;;;;14.48;6.38;;;;;;;;;;5057918;28;20186;-73
2023/07/24 13:18:58;;;;;;;13.65;6.70;;;;;;;;;;5051064;28;20053;-69
2023/07/24 13:21:24;;;;;;;10.32;6.07;;;;;;;;;;5055252;28;20075;-69
2023/07/24 13:23:51;;;;;;;12.77;6.35;;;;;;;;;;5063688;28;20045;-72
2023/07/24 13:26:17;;;;;;;15.35;6.18;;;;;;;;;;5062127;28;20053;-70
2023/07/24 13:28:43;;;;;;;14.07;6.28;;;;;;;;;;5067580;28;20045;-71
2023/07/24 13:31:17;;;;;;;12.65;6.40;;;;;;;;;;5071329;28;20049;-72
2023/07/24 13:33:44;;;;;;;12.57;6.40;;;;;;;;;;5066726;28;20060;-71
2023/07/24 13:36:10;;;;;;;13.70;6.22;;;;;;;;;;5065538;28;20056;-73
2023/07/24 13:38:37;;;;;;;18.38;6.20;;;;;;;;;;5063428;28;20052;-74
2023/07/24 13:41:04;;;;;;;15.43;5.90;;;;;;;;;;5065213;28;20101;-72
2023/07/24 13:43:32;;;;;;;13.73;5.78;;;;;;;;;;5067567;28;20091;-75
2023/07/24 13:45:58;;;;;;;11.02;6.03;;;;;;;;;;5065939;28;20466;-71
2023/07/24 13:48:29;;;;;;;12.73;5.65;;;;;;;;;;5063646;28;20083;-71
2023/07/24 13:50:55;;;;;;;22.05;6.80;;;;;;;;;;5068901;28;20051;-75
2023/07/24 13:53:22;;;;;;;15.50;6.30;;;;;;;;;;5063855;28;20098;-74
2023/07/24 13:55:48;;;;;;;16.85;6.15;;;;;;;;;;5058737;28;20047;-74
2023/07/24 13:58:14;;;;;;;12.75;5.85;;;;;;;;;;5062741;28;20580;-73
2023/07/24 14:00:41;;;;;;;14.25;6.25;;;;;;;;;;5063748;28;20488;-70
2023/07/24 14:03:07;;;;;;;14.75;6.03;;;;;;;;;;5057446;28;20043;-71
2023/07/24 14:05:36;;;;;;;13.02;5.75;;;;;;;;;;5062667;28;20154;-69
2023/07/24 14:08:03;;;;;;;13.02;5.75;;;;;;;;;;5061913;28;20060;-75
2023/07/24 14:10:30;;;;;;;14.63;6.05;;;;;;;;;;5061803;28;20044;-74
2023/07/24 14:12:57;;;;;;;16.67;6.70;;;;;;;;;;5062981;28;20462;-69
2023/07/24 14:15:23;;;;;;;12.32;5.35;;;;;;;;;;5063627;28;20097;-70
2023/07/24 14:17:49;;;;;;;11.30;5.70;;;;;;;;;;5061241;28;20109;-72
2023/07/24 14:20:15;;;;;;;17.10;5.75;;;;;;;;;;5069714;28;20036;-73
2023/07/24 14:22:42;;;;;;;17.20;5.82;;;;;;;;;;5065286;28;20440;-70
2023/07/24 14:25:08;;;;;;;16.30;5.68;;;;;;;;;;5066763;28;20075;-70
2023/07/24 14:27:34;;;;;;;19.33;6.50;;;;;;;;;;5062868;28;20044;-70
2023/07/24 14:30:00;;;;;;;17.02;5.68;;;;;;;;;;5072506;28;20053;-70
2023/07/24 14:32:26;;;;;;;17.48;6.28;;;;;;;;;;5066654;28;20143;-71
2023/07/24 14:34:52;;;;;;;17.00;5.90;;;;;;;;;;5065839;28;20131;-73
2023/07/24 14:37:20;;;;;;;13.65;6.10;;;;;;;;;;5059667;28;20107;-71
2023/07/24 14:40:26;;;;;;;21.80;6.07;;;;;;;;;;5059543;28;20124;-72
2023/07/24 14:44:06;;;;;;;20.50;5.97;;;;;;;;;;5060761;28;20048;-72
2023/07/24 14:47:48;;;;;;;16.70;5.65;;;;;;;;;;5063233;28;20843;-74
2023/07/24 14:51:28;;;;;;;16.13;5.38;;;;;;;;;;5064110;28;20131;-70
2023/07/24 14:54:28;;;;;;;16.73;6.30;;;;;;;;;;5057074;28;20037;-72
2023/07/24 14:56:55;;;;;;;15.82;6.10;;;;;;;;;;5067837;28;20053;-69
2023/07/24 14:59:21;;;;;;;16.00;5.70;;;;;;;;;;5061535;28;20040;-71
2023/07/24 15:01:50;;;;;;;15.02;5.70;;;;;;;;;;5068072;28;20052;-75
2023/07/24 15:04:16;;;;;;;16.52;5.60;;;;;;;;;;5064956;28;20105;-74
2023/07/24 15:06:42;;;;;;;16.85;5.53;;;;;;;;;;5064967;28;20110;-73
2023/07/24 15:09:08;;;;;;;14.45;5.57;;;;;;;;;;5058544;28;20132;-72
2023/07/24 15:11:35;;;;;;;18.58;5.75;;;;;;;;;;5063000;28;20068;-74
2023/07/24 15:14:01;;;;;;;15.48;5.72;;;;;;;;;;5064370;28;20052;-74
2023/07/24 15:16:27;;;;;;;14.15;5.93;;;;;;;;;;5055118;28;20044;-72